Terminal Aerodrome Forecast
Issued by NWS Cleveland, OH

Home | Current Version | Previous Version | Text Only | Print | Product List | Glossary Off
Versions: 1 2 3 4 5 6 7 8 9 10 11 12 13 14 15 16 17 18 19

000
FTUS41 KCLE 172300
TAFCAK
TAF
KCAK 172330Z 1800/1824 06004KT P6SM SCT080
     FM180600 08004KT 5SM BR FEW020 BKN070
      TEMPO 1809/1813 2SM BR
     FM181400 09005KT 6SM HZ BKN030
     FM181700 08005KT P6SM BKN035 OVC070=

USA.gov is the U.S. government's official web portal to all federal, state and local government web resources and services.